Time;durP1;ratioP1;P1;durP2;ratioP2;P2;SDS_P1;SDS_P2;PMS_P1;PMS_P2;Temp;Humidity;BMP_temperature;BMP_pressure;BME280_temperature;BME280_humidity;BME280_pressure;Samples;Min_cycle;Max_cycle;Signal;HPM_P1;HPM_P2
2021/01/08 05:00:29;;;;;;;7.55;6.13;;;1.90;99.90;;;;;;5862263;23;20348;-71
2021/01/08 05:02:55;;;;;;;8.25;6.95;;;1.90;99.90;;;;;;4924880;29;20222;-71
2021/01/08 05:05:22;;;;;;;10.90;8.10;;;1.90;99.90;;;;;;4921328;29;20218;-71
2021/01/08 05:07:48;;;;;;;14.73;8.52;;;1.90;99.90;;;;;;4936463;28;20217;-71
2021/01/08 05:10:15;;;;;;;9.57;6.63;;;1.90;99.90;;;;;;4920395;29;20572;-71
2021/01/08 05:12:44;;;;;;;11.02;6.63;;;1.90;99.90;;;;;;4904126;29;20206;-71
2021/01/08 05:15:14;;;;;;;7.80;5.97;;;1.90;99.90;;;;;;4916732;28;20362;-71
2021/01/08 05:17:43;;;;;;;13.20;6.75;;;1.80;99.90;;;;;;4910860;29;20207;-70
2021/01/08 05:20:10;;;;;;;8.77;6.18;;;1.80;99.90;;;;;;4903325;29;20238;-70
2021/01/08 05:22:37;;;;;;;12.73;7.80;;;1.80;99.90;;;;;;4916168;29;20254;-70
2021/01/08 05:25:06;;;;;;;11.98;7.15;;;1.80;99.90;;;;;;4910627;29;20227;-68
2021/01/08 05:27:33;;;;;;;10.70;7.18;;;1.80;99.90;;;;;;4900989;29;20699;-70
2021/01/08 05:30:17;;;;;;;10.57;7.57;;;1.80;99.90;;;;;;4914620;29;20202;-70
2021/01/08 05:32:44;;;;;;;9.30;6.45;;;1.80;99.90;;;;;;4917105;29;20214;-70
2021/01/08 05:35:14;;;;;;;10.05;6.88;;;1.80;99.90;;;;;;4915428;29;20203;-70
2021/01/08 05:37:43;;;;;;;10.70;7.15;;;1.80;99.90;;;;;;4911034;28;20211;-70
2021/01/08 05:40:11;;;;;;;9.63;7.20;;;1.80;99.90;;;;;;4901065;29;20271;-70
2021/01/08 05:42:49;;;;;;;8.90;6.90;;;1.80;99.90;;;;;;4909939;29;20214;-70
2021/01/08 05:45:15;;;;;;;8.80;5.43;;;1.80;99.90;;;;;;4898040;29;20219;-70
2021/01/08 05:47:43;;;;;;;7.15;5.80;;;1.80;99.90;;;;;;4896896;29;20700;-70
2021/01/08 05:50:11;;;;;;;7.53;5.70;;;1.80;99.90;;;;;;4897484;29;20215;-70
2021/01/08 05:52:42;;;;;;;9.57;6.30;;;1.80;99.90;;;;;;4897397;29;20207;-70
2021/01/08 05:55:11;;;;;;;8.85;6.82;;;1.70;99.90;;;;;;4914381;29;20649;-70
2021/01/08 05:57:37;;;;;;;8.45;6.00;;;1.80;99.90;;;;;;4914417;29;20218;-70
2021/01/08 06:00:05;;;;;;;9.50;6.03;;;1.70;99.90;;;;;;4916768;29;20219;-70
2021/01/08 06:02:32;;;;;;;11.43;7.07;;;1.80;99.90;;;;;;4914534;29;20242;-70
2021/01/08 06:04:59;;;;;;;11.10;6.35;;;1.80;99.90;;;;;;4899646;29;20313;-70
2021/01/08 06:07:28;;;;;;;9.00;6.53;;;1.80;99.90;;;;;;4898056;29;20211;-70
2021/01/08 06:10:01;;;;;;;13.13;6.80;;;1.80;99.90;;;;;;4912656;29;20346;-70
2021/01/08 06:12:33;;;;;;;14.52;7.05;;;1.80;99.90;;;;;;4913593;29;20834;-70
2021/01/08 06:15:02;;;;;;;12.73;7.03;;;1.80;99.90;;;;;;4900049;29;20602;-70
2021/01/08 06:17:28;;;;;;;11.88;6.53;;;1.80;99.90;;;;;;4897681;29;20207;-70
2021/01/08 06:20:02;;;;;;;9.90;6.38;;;1.80;99.90;;;;;;4897591;29;20215;-70
2021/01/08 06:22:35;;;;;;;15.32;7.70;;;1.80;99.90;;;;;;4897969;29;20227;-70
2021/01/08 06:25:02;;;;;;;10.35;6.70;;;1.80;99.90;;;;;;4913572;29;20261;-70
2021/01/08 06:27:33;;;;;;;13.45;8.05;;;1.80;99.90;;;;;;4908032;29;20250;-70
2021/01/08 06:30:01;;;;;;;21.67;9.05;;;1.80;99.90;;;;;;4897454;29;20242;-70
2021/01/08 06:32:32;;;;;;;15.80;8.68;;;1.80;99.90;;;;;;4898081;29;20227;-70
2021/01/08 06:35:06;;;;;;;15.25;8.60;;;1.80;99.90;;;;;;4912646;29;20309;-70
2021/01/08 06:37:41;;;;;;;20.15;9.60;;;1.80;99.90;;;;;;4907712;29;20229;-70
2021/01/08 06:40:10;;;;;;;17.27;9.10;;;1.80;99.90;;;;;;4908291;29;20212;-69
2021/01/08 06:42:44;;;;;;;20.40;9.07;;;1.80;99.90;;;;;;4909503;29;20234;-70
2021/01/08 06:45:13;;;;;;;19.80;9.00;;;1.80;99.90;;;;;;4896816;29;20227;-70
2021/01/08 06:47:44;;;;;;;19.15;8.65;;;1.80;99.90;;;;;;4896212;29;20212;-70
2021/01/08 06:50:17;;;;;;;17.48;7.53;;;1.80;99.90;;;;;;4896973;29;20590;-70
2021/01/08 06:52:46;;;;;;;18.30;8.02;;;1.80;99.90;;;;;;4904347;29;20202;-70
2021/01/08 06:55:17;;;;;;;19.73;8.82;;;1.80;99.90;;;;;;4916277;29;20649;-70
2021/01/08 06:57:52;;;;;;;18.30;8.45;;;1.80;99.90;;;;;;4915526;28;20202;-69
2021/01/08 07:00:22;;;;;;;20.55;8.38;;;1.80;99.90;;;;;;4915536;29;20622;-70
2021/01/08 07:02:55;;;;;;;19.10;9.15;;;1.80;99.90;;;;;;4916049;29;20201;-70
2021/01/08 07:05:21;;;;;;;14.95;7.95;;;1.80;99.90;;;;;;4910132;29;20234;-69
2021/01/08 07:07:50;;;;;;;17.70;8.48;;;1.80;99.90;;;;;;4899152;29;20222;-70
2021/01/08 07:10:17;;;;;;;21.15;8.85;;;1.80;99.90;;;;;;4900651;29;20648;-70
2021/01/08 07:12:43;;;;;;;20.02;10.00;;;1.80;99.90;;;;;;4899388;29;20234;-70
2021/01/08 07:15:10;;;;;;;19.35;9.43;;;1.80;99.90;;;;;;4903125;29;20214;-69
2021/01/08 07:17:39;;;;;;;15.73;8.25;;;1.80;99.90;;;;;;4919229;29;20225;-70
2021/01/08 07:20:07;;;;;;;36.53;14.25;;;1.80;99.90;;;;;;4905912;29;20832;-70
2021/01/08 07:22:37;;;;;;;23.77;10.95;;;1.80;99.90;;;;;;4899500;29;20238;-69
2021/01/08 07:25:06;;;;;;;23.10;10.32;;;1.80;99.90;;;;;;4911021;29;20206;-70
2021/01/08 07:27:33;;;;;;;24.88;10.68;;;1.80;99.90;;;;;;4918433;29;20266;-70
2021/01/08 07:30:02;;;;;;;21.40;9.85;;;1.80;99.90;;;;;;4908188;29;20215;-69
2021/01/08 07:32:36;;;;;;;19.83;10.63;;;1.80;99.90;;;;;;4910213;28;20234;-70
2021/01/08 07:35:15;;;;;;;20.02;10.73;;;1.80;99.90;;;;;;4915302;29;20217;-70
2021/01/08 07:38:03;;;;;;;13.07;8.13;;;1.80;99.90;;;;;;4903124;29;20218;-69
2021/01/08 07:40:31;;;;;;;16.35;9.82;;;1.80;99.90;;;;;;4917262;29;20593;-70
2021/01/08 07:42:59;;;;;;;19.05;10.05;;;1.80;99.90;;;;;;4901753;29;20564;-69
2021/01/08 07:45:50;;;;;;;19.23;11.13;;;1.80;99.90;;;;;;4899924;29;20316;-70
2021/01/08 07:48:27;;;;;;;21.48;10.57;;;1.80;99.90;;;;;;4916597;29;20211;-70
2021/01/08 07:50:58;;;;;;;19.77;10.52;;;1.80;99.90;;;;;;4912170;29;20227;-70
2021/01/08 07:53:44;;;;;;;18.10;9.13;;;1.80;99.90;;;;;;4904103;29;20547;-70
2021/01/08 07:56:12;;;;;;;20.80;9.60;;;1.80;99.90;;;;;;4905958;28;20695;-70
2021/01/08 07:58:39;;;;;;;22.83;10.05;;;1.80;99.90;;;;;;4901019;29;20210;-70
2021/01/08 08:01:07;;;;;;;19.00;10.57;;;1.90;99.90;;;;;;4908773;29;20722;-70
2021/01/08 08:03:33;;;;;;;23.20;10.10;;;1.90;99.90;;;;;;4916080;29;20210;-69
2021/01/08 08:06:00;;;;;;;21.50;10.02;;;1.90;99.90;;;;;;4916321;29;20222;-70
2021/01/08 08:08:27;;;;;;;24.80;11.88;;;1.90;99.90;;;;;;4898213;29;20676;-70
2021/01/08 08:10:53;;;;;;;21.67;11.20;;;2.00;99.90;;;;;;4906099;29;20223;-70
2021/01/08 08:13:28;;;;;;;23.60;10.02;;;2.00;99.90;;;;;;4898408;29;20207;-70
2021/01/08 08:15:55;;;;;;;29.52;11.73;;;2.00;99.90;;;;;;4905964;29;20271;-70
2021/01/08 08:18:21;;;;;;;26.13;11.52;;;2.00;99.90;;;;;;4917544;28;20668;-70
2021/01/08 08:20:47;;;;;;;17.25;8.80;;;2.00;99.90;;;;;;4901032;29;20529;-69
2021/01/08 08:23:14;;;;;;;24.50;11.07;;;2.00;99.90;;;;;;4899583;29;20211;-68
2021/01/08 08:25:41;;;;;;;21.50;9.45;;;2.00;99.90;;;;;;4899068;29;20322;-69
2021/01/08 08:28:08;;;;;;;21.48;10.00;;;2.00;99.90;;;;;;4899439;29;20569;-69
2021/01/08 08:30:35;;;;;;;25.33;11.73;;;2.00;99.90;;;;;;4899000;29;20228;-69
2021/01/08 08:33:04;;;;;;;23.63;9.25;;;2.00;99.90;;;;;;4899171;29;20271;-69
2021/01/08 08:35:32;;;;;;;23.25;10.50;;;2.00;99.90;;;;;;4903249;29;20195;-68
2021/01/08 08:37:58;;;;;;;23.83;11.60;;;2.10;99.90;;;;;;4918711;29;20210;-69
2021/01/08 08:40:26;;;;;;;23.67;10.75;;;2.10;99.90;;;;;;4904401;29;20203;-68
2021/01/08 08:42:54;;;;;;;20.73;11.38;;;2.20;99.90;;;;;;4905060;29;20639;-68
2021/01/08 08:45:22;;;;;;;29.25;13.02;;;2.20;99.90;;;;;;4915299;29;20232;-68
2021/01/08 08:47:50;;;;;;;23.70;12.05;;;2.20;99.90;;;;;;4906414;29;20200;-68
2021/01/08 08:50:17;;;;;;;22.98;11.80;;;2.20;99.90;;;;;;4899679;29;20222;-68
2021/01/08 08:52:44;;;;;;;28.55;13.95;;;2.30;99.90;;;;;;4906997;29;20199;-68
2021/01/08 08:55:24;;;;;;;21.67;13.30;;;2.30;99.90;;;;;;4917553;29;20536;-68
2021/01/08 08:57:51;;;;;;;25.50;14.68;;;2.30;99.90;;;;;;4916602;29;20214;-68
2021/01/08 09:00:20;;;;;;;33.22;15.77;;;2.30;99.90;;;;;;4907985;29;20211;-68
2021/01/08 09:02:46;;;;;;;26.38;13.10;;;2.30;99.90;;;;;;4915160;29;20273;-68
2021/01/08 09:05:13;;;;;;;28.95;13.43;;;2.30;99.90;;;;;;4916317;29;20210;-68
2021/01/08 09:07:43;;;;;;;25.70;13.45;;;2.30;99.90;;;;;;4906571;29;20215;-68
2021/01/08 09:10:14;;;;;;;26.80;13.63;;;2.30;99.90;;;;;;4917509;29;20210;-69
2021/01/08 09:12:47;;;;;;;21.25;12.68;;;2.30;99.90;;;;;;4916549;29;20304;-69
2021/01/08 09:15:21;;;;;;;26.92;14.05;;;2.20;99.90;;;;;;4905630;29;20203;-69
2021/01/08 09:17:50;;;;;;;24.80;13.27;;;2.30;99.90;;;;;;4913176;29;20242;-68
2021/01/08 09:20:18;;;;;;;26.13;13.82;;;2.30;99.90;;;;;;4915359;29;20211;-69
2021/01/08 09:22:45;;;;;;;25.30;13.00;;;2.30;99.90;;;;;;4898258;29;20572;-68
2021/01/08 09:25:13;;;;;;;22.50;12.30;;;2.30;99.90;;;;;;4913520;29;20973;-69
2021/01/08 09:27:42;;;;;;;25.77;13.20;;;2.30;99.90;;;;;;4898082;29;20222;-69
2021/01/08 09:30:09;;;;;;;24.73;12.00;;;2.40;99.90;;;;;;4915470;29;20217;-68
2021/01/08 09:32:36;;;;;;;24.38;12.55;;;2.30;99.90;;;;;;4904720;29;20213;-68
2021/01/08 09:35:04;;;;;;;26.67;14.88;;;2.30;99.90;;;;;;4902848;29;20608;-68
2021/01/08 09:37:38;;;;;;;27.30;13.95;;;2.40;99.90;;;;;;4898070;29;20675;-69
2021/01/08 09:40:15;;;;;;;25.42;13.20;;;2.40;99.90;;;;;;4899020;29;20211;-69
2021/01/08 09:42:42;;;;;;;26.98;13.82;;;2.40;99.90;;;;;;4897051;29;20215;-70
2021/01/08 09:45:18;;;;;;;23.63;13.43;;;2.50;99.90;;;;;;4901389;29;20584;-69
2021/01/08 09:47:45;;;;;;;23.75;12.80;;;2.50;99.90;;;;;;4898955;29;20396;-69
2021/01/08 09:50:22;;;;;;;23.85;12.35;;;2.50;99.90;;;;;;4900286;29;20215;-69
2021/01/08 09:52:49;;;;;;;25.42;13.45;;;2.50;99.90;;;;;;4913570;29;20233;-69
2021/01/08 09:55:29;;;;;;;32.13;14.95;;;2.50;99.90;;;;;;4916672;29;20931;-68
2021/01/08 09:57:59;;;;;;;26.88;13.18;;;2.60;99.90;;;;;;4912128;29;20597;-68
2021/01/08 10:00:31;;;;;;;23.17;12.38;;;2.60;99.90;;;;;;4912097;29;20290;-68
2021/01/08 10:02:58;;;;;;;26.75;13.80;;;2.60;99.90;;;;;;4915739;29;20207;-68
2021/01/08 10:05:26;;;;;;;26.80;14.05;;;2.60;99.90;;;;;;4916586;29;20210;-68
2021/01/08 10:07:53;;;;;;;29.27;13.85;;;2.60;99.90;;;;;;4913133;29;20299;-68
2021/01/08 10:10:38;;;;;;;30.70;16.40;;;2.70;99.90;;;;;;4897466;29;20207;-68
2021/01/08 10:13:07;;;;;;;27.90;14.15;;;2.60;99.90;;;;;;4901796;29;20194;-68
2021/01/08 10:15:36;;;;;;;27.67;13.02;;;2.70;99.90;;;;;;4915011;29;20214;-68
2021/01/08 10:18:10;;;;;;;35.15;13.05;;;2.70;99.90;;;;;;4916208;29;20210;-68
2021/01/08 10:20:47;;;;;;;18.17;12.30;;;2.70;99.90;;;;;;4912396;29;20306;-68
2021/01/08 10:23:15;;;;;;;26.80;13.73;;;2.70;99.90;;;;;;4897099;29;20215;-68
2021/01/08 10:25:42;;;;;;;24.30;12.00;;;2.70;99.90;;;;;;4900687;29;20759;-68
2021/01/08 10:28:19;;;;;;;20.48;12.57;;;2.70;99.90;;;;;;4912969;29;20676;-68
2021/01/08 10:30:48;;;;;;;23.02;12.98;;;2.70;99.90;;;;;;4912035;29;20233;-68
2021/01/08 10:33:14;;;;;;;21.08;12.73;;;2.70;99.90;;;;;;4897397;29;20594;-67
2021/01/08 10:35:45;;;;;;;23.80;11.93;;;2.70;99.90;;;;;;4899923;29;20218;-69
2021/01/08 10:38:12;;;;;;;23.73;11.73;;;2.70;99.90;;;;;;4916544;29;20296;-69
2021/01/08 10:40:39;;;;;;;18.92;12.20;;;2.70;99.90;;;;;;4913907;29;20234;-69
2021/01/08 10:43:05;;;;;;;17.90;11.18;;;2.70;99.90;;;;;;4903410;29;20286;-69
2021/01/08 10:45:31;;;;;;;21.83;11.20;;;2.70;99.90;;;;;;4911957;29;20203;-70
2021/01/08 10:47:57;;;;;;;16.27;10.60;;;2.70;99.90;;;;;;4922608;29;20210;-69
2021/01/08 10:50:23;;;;;;;19.65;11.10;;;2.70;99.90;;;;;;4912502;29;20210;-69
2021/01/08 10:52:49;;;;;;;19.08;11.88;;;2.80;99.90;;;;;;4903570;29;20229;-69
2021/01/08 10:55:16;;;;;;;19.77;12.07;;;2.80;99.90;;;;;;4907294;29;20207;-69
2021/01/08 10:57:43;;;;;;;22.67;12.00;;;2.80;99.90;;;;;;4902564;29;21031;-70
2021/01/08 11:00:12;;;;;;;15.82;11.50;;;2.80;99.90;;;;;;4903893;29;20398;-71
2021/01/08 11:02:38;;;;;;;18.83;11.68;;;2.90;99.90;;;;;;4920933;29;20330;-70
2021/01/08 11:05:05;;;;;;;17.52;10.88;;;2.90;99.90;;;;;;4922693;29;20210;-69
2021/01/08 11:07:32;;;;;;;16.08;10.32;;;2.80;99.90;;;;;;4922650;29;20317;-69
2021/01/08 11:09:59;;;;;;;16.42;10.45;;;2.80;99.90;;;;;;4923221;29;20212;-69
2021/01/08 11:12:26;;;;;;;16.73;9.85;;;2.80;99.90;;;;;;4922884;29;20290;-69
2021/01/08 11:14:53;;;;;;;15.32;9.52;;;2.80;99.90;;;;;;4922636;29;20233;-69
2021/01/08 11:17:19;;;;;;;18.30;9.65;;;2.80;99.90;;;;;;4920542;29;20211;-69
2021/01/08 11:19:46;;;;;;;17.50;9.48;;;2.80;99.90;;;;;;4903486;29;20226;-69
2021/01/08 11:22:12;;;;;;;14.75;10.05;;;2.80;99.90;;;;;;4903172;29;20231;-68
2021/01/08 11:24:38;;;;;;;14.25;9.35;;;2.80;99.90;;;;;;4903273;29;20211;-68
2021/01/08 11:27:05;;;;;;;18.83;10.85;;;2.80;99.90;;;;;;4902639;29;20242;-68
2021/01/08 11:29:31;;;;;;;18.45;11.13;;;2.80;99.90;;;;;;4902680;29;20283;-68
2021/01/08 11:31:58;;;;;;;18.08;10.07;;;2.90;99.90;;;;;;4902629;29;20226;-68
2021/01/08 11:34:24;;;;;;;16.80;10.65;;;2.90;99.90;;;;;;4909101;29;20206;-68
2021/01/08 11:36:54;;;;;;;21.40;11.73;;;2.90;99.90;;;;;;4917648;29;20206;-70
2021/01/08 11:39:21;;;;;;;21.83;10.65;;;2.90;99.90;;;;;;4915667;29;20291;-68
2021/01/08 11:41:47;;;;;;;15.13;10.60;;;3.00;99.90;;;;;;4910039;29;20590;-68
2021/01/08 11:44:13;;;;;;;18.00;10.63;;;3.00;99.90;;;;;;4902594;29;20285;-68
2021/01/08 11:46:39;;;;;;;17.40;10.05;;;3.00;99.90;;;;;;4917807;29;20738;-68
2021/01/08 11:49:06;;;;;;;14.52;9.80;;;3.00;99.90;;;;;;4916484;29;20211;-68
2021/01/08 11:51:33;;;;;;;19.00;10.90;;;3.00;99.90;;;;;;4902832;29;20231;-68
2021/01/08 11:53:59;;;;;;;15.10;10.23;;;3.00;99.90;;;;;;4903228;29;20239;-67
2021/01/08 11:56:28;;;;;;;15.57;9.93;;;2.90;99.90;;;;;;4918263;29;20341;-68
2021/01/08 11:58:55;;;;;;;13.27;8.90;;;3.00;99.90;;;;;;4918612;29;20203;-69
2021/01/08 12:01:25;;;;;;;16.30;10.90;;;3.00;99.90;;;;;;4918327;29;20289;-69
2021/01/08 12:03:51;;;;;;;14.63;9.10;;;2.90;99.90;;;;;;4920583;29;20239;-68
2021/01/08 12:06:18;;;;;;;11.77;8.15;;;2.90;99.90;;;;;;4919197;29;20598;-69
2021/01/08 12:08:44;;;;;;;15.02;8.95;;;2.90;99.90;;;;;;4906613;29;20236;-68
2021/01/08 12:11:15;;;;;;;13.82;8.85;;;2.80;99.90;;;;;;4899442;29;20237;-68
2021/01/08 12:13:43;;;;;;;14.45;9.85;;;2.80;99.90;;;;;;4899363;29;20572;-69
2021/01/08 12:16:09;;;;;;;16.92;10.35;;;2.90;99.90;;;;;;4905930;29;20230;-69
2021/01/08 12:18:35;;;;;;;13.88;10.02;;;2.80;99.90;;;;;;4918563;29;20218;-69
2021/01/08 12:21:01;;;;;;;14.20;10.30;;;2.80;99.90;;;;;;4918302;29;20234;-69
2021/01/08 12:23:28;;;;;;;15.05;9.90;;;2.80;99.90;;;;;;4918040;29;20207;-69
2021/01/08 12:25:55;;;;;;;13.07;8.70;;;2.80;99.90;;;;;;4916349;29;20250;-69
2021/01/08 12:28:21;;;;;;;12.90;9.00;;;2.80;99.90;;;;;;4917967;29;20564;-68
2021/01/08 12:30:47;;;;;;;16.70;10.32;;;2.80;99.90;;;;;;4918373;29;20298;-69
2021/01/08 12:33:13;;;;;;;14.05;9.85;;;2.80;99.90;;;;;;4918238;29;20214;-69
2021/01/08 12:35:39;;;;;;;20.42;10.23;;;2.80;99.90;;;;;;4918241;29;20214;-69
2021/01/08 12:38:05;;;;;;;15.85;9.68;;;2.80;99.90;;;;;;4918215;29;20253;-69
2021/01/08 12:40:32;;;;;;;15.40;8.90;;;2.80;99.90;;;;;;4917598;29;20238;-69
2021/01/08 12:42:58;;;;;;;17.20;12.48;;;2.80;99.90;;;;;;4915600;29;20256;-69
2021/01/08 12:45:25;;;;;;;15.63;10.35;;;2.80;99.90;;;;;;4918369;29;20207;-69
2021/01/08 12:47:51;;;;;;;18.55;10.35;;;2.80;99.90;;;;;;4918420;29;20211;-68
2021/01/08 12:50:19;;;;;;;13.68;9.40;;;2.80;99.90;;;;;;4917892;29;20687;-68
2021/01/08 12:52:46;;;;;;;21.23;13.02;;;2.80;99.90;;;;;;4917855;29;20593;-67
2021/01/08 12:55:13;;;;;;;17.17;10.85;;;2.80;99.90;;;;;;4917484;29;20222;-68
2021/01/08 12:57:40;;;;;;;16.63;11.38;;;2.80;99.90;;;;;;4915899;29;20226;-70
2021/01/08 13:00:08;;;;;;;14.93;10.90;;;2.80;99.90;;;;;;4917728;29;20207;-70
2021/01/08 13:02:34;;;;;;;17.48;10.93;;;2.70;99.90;;;;;;4917241;29;20218;-69
2021/01/08 13:05:00;;;;;;;18.20;10.20;;;2.70;99.90;;;;;;4916705;29;20262;-70
2021/01/08 13:07:27;;;;;;;16.48;9.38;;;2.80;99.90;;;;;;4917710;29;20234;-70
2021/01/08 13:09:53;;;;;;;18.08;11.48;;;2.70;99.90;;;;;;4917436;29;20222;-69
2021/01/08 13:12:19;;;;;;;15.52;10.63;;;2.70;99.90;;;;;;4917008;29;20241;-70
2021/01/08 13:14:46;;;;;;;16.60;11.07;;;2.70;99.90;;;;;;4917139;29;20493;-70
2021/01/08 13:17:12;;;;;;;15.10;10.10;;;2.70;99.90;;;;;;4915749;29;20203;-70
2021/01/08 13:19:38;;;;;;;13.60;10.30;;;2.70;99.90;;;;;;4917024;29;20218;-69
2021/01/08 13:22:05;;;;;;;18.58;10.45;;;2.70;99.90;;;;;;4916929;29;20234;-70
2021/01/08 13:24:31;;;;;;;15.85;10.40;;;2.70;99.90;;;;;;4916929;29;20247;-70
2021/01/08 13:26:57;;;;;;;18.63;11.20;;;2.70;99.90;;;;;;4916625;29;20230;-70
2021/01/08 13:29:23;;;;;;;18.05;10.25;;;2.70;99.90;;;;;;4916692;29;20215;-70
2021/01/08 13:31:50;;;;;;;15.50;10.23;;;2.70;99.90;;;;;;4914794;29;20227;-69
2021/01/08 13:34:16;;;;;;;18.95;10.50;;;2.70;99.90;;;;;;4917101;29;20675;-70
2021/01/08 13:36:42;;;;;;;22.48;11.18;;;2.70;99.90;;;;;;4917017;29;20261;-70
2021/01/08 13:39:10;;;;;;;16.83;9.73;;;2.70;99.90;;;;;;4916760;29;20524;-70
2021/01/08 13:41:37;;;;;;;15.02;10.65;;;2.70;99.90;;;;;;4916469;29;20543;-69
2021/01/08 13:44:04;;;;;;;17.58;10.80;;;2.70;99.90;;;;;;4917172;29;20206;-70
2021/01/08 13:46:30;;;;;;;16.80;10.70;;;2.70;99.90;;;;;;4916950;29;20691;-69
2021/01/08 13:48:57;;;;;;;16.48;11.23;;;2.70;99.90;;;;;;4911892;29;20287;-69
2021/01/08 13:51:24;;;;;;;16.75;10.60;;;2.70;99.90;;;;;;4897727;29;20228;-69
2021/01/08 13:53:51;;;;;;;16.52;10.82;;;2.70;99.90;;;;;;4897677;29;20672;-69
2021/01/08 13:56:20;;;;;;;19.73;11.55;;;2.70;99.90;;;;;;4897799;29;20313;-69
2021/01/08 13:58:47;;;;;;;12.45;9.02;;;2.70;99.90;;;;;;4898346;29;20216;-69
2021/01/08 14:01:14;;;;;;;14.98;10.70;;;2.60;99.90;;;;;;4897645;29;20251;-69
2021/01/08 14:03:40;;;;;;;18.10;11.70;;;2.60;99.90;;;;;;4897639;29;20233;-69
2021/01/08 14:06:07;;;;;;;18.33;9.25;;;2.60;99.90;;;;;;4901781;29;20211;-69
2021/01/08 14:08:33;;;;;;;15.95;10.85;;;2.50;99.90;;;;;;4916477;29;20214;-69
2021/01/08 14:11:00;;;;;;;27.02;16.27;;;2.50;99.90;;;;;;4916322;29;20242;-69
2021/01/08 14:13:26;;;;;;;17.40;11.38;;;2.50;99.90;;;;;;4899312;29;20234;-70
2021/01/08 14:15:55;;;;;;;25.52;14.73;;;2.40;99.90;;;;;;4897175;29;20215;-70
2021/01/08 14:18:21;;;;;;;17.75;11.60;;;2.50;99.90;;;;;;4911600;29;20619;-70
2021/01/08 14:20:47;;;;;;;17.17;11.27;;;2.50;99.90;;;;;;4915938;29;20235;-70
2021/01/08 14:23:14;;;;;;;16.35;10.68;;;2.50;99.90;;;;;;4900719;28;20511;-70
2021/01/08 14:25:40;;;;;;;15.38;9.98;;;2.40;99.90;;;;;;4897900;29;20223;-70
2021/01/08 14:28:06;;;;;;;12.38;9.40;;;2.40;99.90;;;;;;4898080;29;20207;-70
2021/01/08 14:30:33;;;;;;;17.08;10.25;;;2.40;99.90;;;;;;4906827;29;20222;-70
2021/01/08 14:32:59;;;;;;;15.88;9.85;;;2.40;99.90;;;;;;4915703;29;20214;-70
2021/01/08 14:35:25;;;;;;;18.85;11.88;;;2.40;99.90;;;;;;4905732;29;20207;-70
2021/01/08 14:37:51;;;;;;;17.25;10.20;;;2.40;99.90;;;;;;4915098;29;20262;-70
2021/01/08 14:40:18;;;;;;;16.58;10.50;;;2.40;99.90;;;;;;4893299;28;20226;-70
2021/01/08 14:42:44;;;;;;;17.23;11.48;;;2.40;99.90;;;;;;4901449;29;20805;-70
2021/01/08 14:45:10;;;;;;;17.25;10.38;;;2.30;99.90;;;;;;4910997;29;20206;-70
2021/01/08 14:47:40;;;;;;;17.95;12.45;;;2.30;99.90;;;;;;4907846;29;20249;-70
2021/01/08 14:50:07;;;;;;;16.95;10.27;;;2.30;99.90;;;;;;4918316;29;20277;-70
2021/01/08 14:52:34;;;;;;;20.67;10.25;;;2.30;99.90;;;;;;4931327;29;20272;-70
2021/01/08 14:55:00;;;;;;;17.90;12.43;;;2.30;99.90;;;;;;4907141;29;20207;-70
2021/01/08 14:57:27;;;;;;;24.35;12.80;;;2.30;99.90;;;;;;4900765;29;20210;-70
2021/01/08 14:59:55;;;;;;;17.33;10.13;;;2.30;99.90;;;;;;4912135;29;20278;-71
2021/01/08 15:02:21;;;;;;;21.77;11.40;;;2.30;99.90;;;;;;4906075;29;20249;-70
2021/01/08 15:04:47;;;;;;;19.33;11.30;;;2.20;99.90;;;;;;4893916;29;20222;-70
2021/01/08 15:07:14;;;;;;;17.08;10.95;;;2.20;99.90;;;;;;4907223;29;20226;-70
2021/01/08 15:09:40;;;;;;;18.70;10.23;;;2.20;99.90;;;;;;4911566;29;20221;-70
2021/01/08 15:12:08;;;;;;;16.92;11.75;;;2.20;99.90;;;;;;4900492;29;20333;-70
2021/01/08 15:14:35;;;;;;;16.58;10.57;;;2.20;99.90;;;;;;4899914;29;20202;-70
2021/01/08 15:17:01;;;;;;;16.33;10.90;;;2.20;99.90;;;;;;4894916;29;20206;-69
2021/01/08 15:19:27;;;;;;;18.17;11.00;;;2.20;99.90;;;;;;4911125;29;20221;-70
2021/01/08 15:21:53;;;;;;;17.27;10.77;;;2.20;99.90;;;;;;4911179;29;20226;-70
2021/01/08 15:24:19;;;;;;;14.05;9.88;;;2.20;99.90;;;;;;4911781;29;20245;-70
2021/01/08 15:26:45;;;;;;;14.70;10.27;;;2.20;99.90;;;;;;4893934;29;20231;-70
2021/01/08 15:29:12;;;;;;;21.17;11.80;;;2.10;99.90;;;;;;4905508;29;20211;-70
2021/01/08 15:31:39;;;;;;;14.18;9.35;;;2.10;99.90;;;;;;4915438;29;20238;-69
2021/01/08 15:34:05;;;;;;;17.23;10.48;;;2.20;99.90;;;;;;4897672;29;20215;-70
2021/01/08 15:36:32;;;;;;;20.65;16.08;;;2.20;99.90;;;;;;4897788;29;20597;-71
2021/01/08 15:38:58;;;;;;;18.85;10.63;;;2.20;99.90;;;;;;4897942;29;20211;-68
2021/01/08 15:41:24;;;;;;;13.57;10.50;;;2.20;99.90;;;;;;4909305;29;20237;-69
2021/01/08 15:43:51;;;;;;;18.40;10.32;;;2.20;99.90;;;;;;4906829;29;20208;-70
2021/01/08 15:46:18;;;;;;;16.63;13.38;;;2.20;99.90;;;;;;4913107;29;20230;-69
2021/01/08 15:48:45;;;;;;;14.43;9.55;;;2.20;99.90;;;;;;4904691;29;20325;-71
2021/01/08 15:51:12;;;;;;;20.30;13.00;;;2.20;99.90;;;;;;4934791;29;20261;-71
2021/01/08 15:53:38;;;;;;;16.80;11.85;;;2.20;99.90;;;;;;4916390;29;20210;-69
2021/01/08 15:56:05;;;;;;;16.95;9.95;;;2.20;99.90;;;;;;4896916;29;20274;-69
2021/01/08 15:58:31;;;;;;;15.70;9.85;;;2.10;99.90;;;;;;4900512;29;20203;-68
2021/01/08 16:00:58;;;;;;;20.85;11.20;;;2.10;99.90;;;;;;4898366;29;20275;-69
2021/01/08 16:03:25;;;;;;;15.13;10.50;;;2.10;99.90;;;;;;4900198;29;20237;-69
2021/01/08 16:05:52;;;;;;;15.45;10.77;;;2.10;99.90;;;;;;4916224;29;20226;-70
2021/01/08 16:08:19;;;;;;;13.48;10.05;;;2.10;99.90;;;;;;4905669;29;20215;-70
2021/01/08 16:10:47;;;;;;;21.08;12.82;;;2.10;99.90;;;;;;4896575;29;20265;-70
2021/01/08 16:13:14;;;;;;;16.83;10.05;;;2.10;99.90;;;;;;4904977;29;20230;-69
2021/01/08 16:15:40;;;;;;;10.80;7.60;;;2.10;99.90;;;;;;4923039;29;20211;-70
2021/01/08 16:18:06;;;;;;;14.73;10.25;;;2.10;99.90;;;;;;4910395;29;20217;-70
2021/01/08 16:20:34;;;;;;;12.13;9.60;;;2.10;99.90;;;;;;4909154;29;20235;-70
2021/01/08 16:23:00;;;;;;;14.88;8.88;;;2.10;99.90;;;;;;4907449;29;20808;-69
2021/01/08 16:25:26;;;;;;;15.98;9.93;;;2.10;99.90;;;;;;4914930;29;20630;-70
2021/01/08 16:27:53;;;;;;;12.68;9.80;;;2.10;99.90;;;;;;4909971;29;20313;-70
2021/01/08 16:30:20;;;;;;;16.73;9.57;;;2.10;99.90;;;;;;4913125;29;20219;-70
2021/01/08 16:32:47;;;;;;;16.50;10.50;;;2.10;99.90;;;;;;4896181;29;20215;-70
2021/01/08 16:35:14;;;;;;;17.50;10.93;;;2.10;99.90;;;;;;4896800;29;20215;-70
2021/01/08 16:37:42;;;;;;;19.77;11.98;;;2.10;99.90;;;;;;4896791;29;20709;-70
2021/01/08 16:40:11;;;;;;;18.65;9.65;;;2.10;99.90;;;;;;4895593;29;20648;-70
2021/01/08 16:42:37;;;;;;;13.82;9.80;;;2.10;99.90;;;;;;4902600;29;20215;-70
2021/01/08 16:45:06;;;;;;;15.23;10.32;;;2.10;99.90;;;;;;4911859;29;20215;-70
2021/01/08 16:47:32;;;;;;;13.10;10.48;;;2.10;99.90;;;;;;4897757;29;20708;-70
2021/01/08 16:49:58;;;;;;;13.68;9.43;;;2.00;99.90;;;;;;4912468;29;20222;-70
2021/01/08 16:52:24;;;;;;;13.13;10.13;;;2.10;99.90;;;;;;4933618;29;20241;-70
2021/01/08 16:54:50;;;;;;;16.10;9.95;;;2.10;99.90;;;;;;4909648;29;20589;-70
2021/01/08 16:57:17;;;;;;;16.48;10.75;;;2.10;99.90;;;;;;4914988;29;20222;-70
2021/01/08 16:59:44;;;;;;;22.40;12.85;;;2.00;99.90;;;;;;4899669;29;20219;-70
2021/01/08 17:02:10;;;;;;;26.65;15.15;;;2.10;99.90;;;;;;4895859;29;21004;-70
2021/01/08 17:04:38;;;;;;;17.42;10.82;;;2.00;99.90;;;;;;4895082;29;20228;-70
2021/01/08 17:07:04;;;;;;;22.05;11.85;;;2.00;99.90;;;;;;4902981;29;20241;-70
2021/01/08 17:09:30;;;;;;;18.98;12.75;;;2.00;99.90;;;;;;4897267;29;20684;-70
2021/01/08 17:11:57;;;;;;;24.50;13.05;;;2.00;99.90;;;;;;4897291;29;20227;-70
2021/01/08 17:14:24;;;;;;;21.63;12.57;;;2.00;99.90;;;;;;4900653;29;20664;-71
2021/01/08 17:16:50;;;;;;;18.45;10.85;;;2.00;99.90;;;;;;4899634;29;20200;-70
2021/01/08 17:19:16;;;;;;;18.25;11.20;;;2.00;99.90;;;;;;4905024;29;20210;-70
2021/01/08 17:21:42;;;;;;;19.85;10.27;;;2.00;99.90;;;;;;4916889;29;20540;-70
2021/01/08 17:24:10;;;;;;;18.25;12.80;;;2.00;99.90;;;;;;4909430;29;20211;-70
2021/01/08 17:26:38;;;;;;;23.45;11.95;;;2.00;99.90;;;;;;4898437;29;20235;-70
2021/01/08 17:29:05;;;;;;;25.25;13.15;;;2.00;99.90;;;;;;4902739;29;20230;-70
2021/01/08 17:31:32;;;;;;;14.90;10.40;;;2.00;99.90;;;;;;4918110;29;20235;-70
2021/01/08 17:33:58;;;;;;;21.92;11.50;;;2.00;99.90;;;;;;4904541;29;20218;-71
2021/01/08 17:36:25;;;;;;;19.10;11.30;;;2.00;99.90;;;;;;4904510;29;20207;-70
2021/01/08 17:38:51;;;;;;;17.88;12.43;;;2.00;99.90;;;;;;4903890;29;20614;-70
2021/01/08 17:41:17;;;;;;;17.70;11.05;;;1.90;99.90;;;;;;4903726;29;20315;-70
2021/01/08 17:43:44;;;;;;;20.50;11.63;;;1.90;99.90;;;;;;4900382;29;20214;-70